createdAt,value
2022-10-07T00:01:01.394Z,11.26
2022-10-07T00:03:33.963Z,10.95
2022-10-07T00:06:20.843Z,10.63
2022-10-07T00:08:52.058Z,10.19
2022-10-07T00:11:24.573Z,10.26
2022-10-07T00:13:55.832Z,11.97
2022-10-07T00:16:29.649Z,13.60
2022-10-07T00:19:01.018Z,14.31
2022-10-07T00:21:32.482Z,13.45
2022-10-07T00:24:01.504Z,12.47
2022-10-07T00:26:31.126Z,11.74
2022-10-07T00:28:57.995Z,11.15
2022-10-07T00:31:31.891Z,10.68
2022-10-07T00:34:03.434Z,10.33
2022-10-07T00:36:34.155Z,10.46
2022-10-07T00:39:20.691Z,12.14
2022-10-07T00:41:51.036Z,13.88
2022-10-07T00:44:41.082Z,14.53
2022-10-07T00:47:20.879Z,13.53
2022-10-07T00:50:00.211Z,12.53
2022-10-07T00:52:32.603Z,11.79
2022-10-07T00:55:04.624Z,11.27
2022-10-07T00:57:33.136Z,10.95
2022-10-07T01:00:04.087Z,11.99
2022-10-07T01:02:30.820Z,13.72
2022-10-07T01:05:01.302Z,14.59
2022-10-07T01:07:31.270Z,13.82
2022-10-07T01:10:00.137Z,12.92
2022-10-07T01:12:54.881Z,12.20
2022-10-07T01:15:42.326Z,11.48
2022-10-07T01:18:52.133Z,11.04
2022-10-07T01:21:59.865Z,11.78
2022-10-07T01:25:19.568Z,13.99
2022-10-07T01:28:03.073Z,14.63
2022-10-07T01:30:37.043Z,13.53
2022-10-07T01:33:07.655Z,12.60
2022-10-07T01:35:37.297Z,11.95
2022-10-07T01:38:12.106Z,11.47
2022-10-07T01:40:50.857Z,11.06
2022-10-07T01:43:21.833Z,10.72
2022-10-07T01:45:54.258Z,10.88
2022-10-07T01:48:21.175Z,12.41
2022-10-07T01:50:50.363Z,13.98
2022-10-07T01:53:56.526Z,14.61
2022-10-07T01:56:43.918Z,13.53
2022-10-07T02:00:05.270Z,12.48
2022-10-07T02:02:53.015Z,11.52
2022-10-07T02:05:47.366Z,10.99
2022-10-07T02:08:54.736Z,11.17
2022-10-07T02:11:29.996Z,13.16
2022-10-07T02:14:08.520Z,13.85
2022-10-07T02:16:49.438Z,12.94
2022-10-07T02:19:27.854Z,12.22
2022-10-07T02:21:56.924Z,12.55
2022-10-07T02:24:31.777Z,14.03
2022-10-07T02:27:06.195Z,14.82
2022-10-07T02:29:36.484Z,13.99
2022-10-07T02:32:14.908Z,13.07
2022-10-07T02:34:45.464Z,12.38
2022-10-07T02:37:24.171Z,11.86
2022-10-07T02:39:53.200Z,11.93
2022-10-07T02:42:53.381Z,13.29
2022-10-07T02:45:50.492Z,14.35
2022-10-07T02:48:27.127Z,13.59
2022-10-07T02:51:02.393Z,12.60
2022-10-07T02:53:31.754Z,12.66
2022-10-07T02:56:02.026Z,14.10
2022-10-07T02:58:28.818Z,14.88
2022-10-07T03:00:59.781Z,14.17
2022-10-07T03:03:27.993Z,13.50
2022-10-07T03:05:55.489Z,12.87
2022-10-07T03:08:22.507Z,12.77
2022-10-07T03:10:49.507Z,13.86
2022-10-07T03:13:16.588Z,14.94
2022-10-07T03:15:45.843Z,14.75
2022-10-07T03:18:25.631Z,13.95
2022-10-07T03:20:58.247Z,13.17
2022-10-07T03:23:28.437Z,13.29
2022-10-07T03:25:57.861Z,14.37
2022-10-07T03:28:27.897Z,14.99
2022-10-07T03:31:03.997Z,14.36
2022-10-07T03:33:30.493Z,13.60
2022-10-07T03:35:57.395Z,13.36
2022-10-07T03:38:23.787Z,14.57
2022-10-07T03:40:50.218Z,15.86
2022-10-07T03:43:17.628Z,15.64
2022-10-07T03:45:48.577Z,14.70
2022-10-07T03:48:16.270Z,13.87
2022-10-07T03:51:00.100Z,14.04
2022-10-07T03:53:28.997Z,15.52
2022-10-07T03:55:56.637Z,15.44
2022-10-07T03:58:23.305Z,14.33
2022-10-07T04:00:49.658Z,13.67
2022-10-07T04:03:18.010Z,13.56
2022-10-07T04:06:00.739Z,14.90
2022-10-07T04:08:29.158Z,16.12
2022-10-07T04:10:59.085Z,15.81
2022-10-07T04:13:26.538Z,14.86
2022-10-07T04:15:54.699Z,14.04
2022-10-07T04:18:23.183Z,14.00
2022-10-07T04:20:49.909Z,15.23
2022-10-07T04:23:16.613Z,16.24
2022-10-07T04:25:46.694Z,16.40
2022-10-07T04:28:23.190Z,15.53
2022-10-07T04:30:50.932Z,14.54
2022-10-07T04:33:21.070Z,14.41
2022-10-07T04:35:49.573Z,15.73
2022-10-07T04:38:17.918Z,16.91
2022-10-07T04:40:49.375Z,17.25
2022-10-07T04:43:19.228Z,16.17
2022-10-07T04:45:59.984Z,15.18
2022-10-07T04:48:27.260Z,14.27
2022-10-07T04:50:54.154Z,14.16
2022-10-07T04:53:20.897Z,15.45
2022-10-07T04:55:51.130Z,16.51
2022-10-07T04:58:19.033Z,17.35
2022-10-07T05:00:52.485Z,17.02
2022-10-07T05:03:21.876Z,15.90
2022-10-07T05:05:51.737Z,14.96
2022-10-07T05:08:21.175Z,14.59
2022-10-07T05:10:47.934Z,15.83
2022-10-07T05:13:16.326Z,16.99
2022-10-07T05:15:54.959Z,17.65
2022-10-07T05:18:23.255Z,17.22
2022-10-07T05:20:50.626Z,16.14
2022-10-07T05:23:23.318Z,15.20
2022-10-07T05:26:04.929Z,14.46
2022-10-07T05:28:34.133Z,14.35
2022-10-07T05:31:10.694Z,15.76
2022-10-07T05:33:38.702Z,17.12
2022-10-07T05:36:08.143Z,17.49
2022-10-07T05:38:36.262Z,16.52
2022-10-07T05:41:06.564Z,15.38
2022-10-07T05:43:37.445Z,14.50
2022-10-07T05:46:09.607Z,14.28
2022-10-07T05:48:39.382Z,15.58
2022-10-07T05:51:08.110Z,16.72
2022-10-07T05:53:35.087Z,17.52
2022-10-07T05:56:07.712Z,17.42
2022-10-07T05:58:36.226Z,16.36
2022-10-07T06:01:11.462Z,15.23
2022-10-07T06:03:42.916Z,14.87
2022-10-07T06:06:09.757Z,16.14
2022-10-07T06:08:36.386Z,17.05
2022-10-07T06:11:23.944Z,17.61
2022-10-07T06:13:52.989Z,17.61
2022-10-07T06:16:20.575Z,16.57
2022-10-07T06:18:49.834Z,15.58
2022-10-07T06:21:16.648Z,15.19
2022-10-07T06:23:45.241Z,16.37
2022-10-07T06:26:13.598Z,17.51
2022-10-07T06:28:41.453Z,18.18
2022-10-07T06:31:12.426Z,18.36
2022-10-07T06:33:41.125Z,17.35
2022-10-07T06:36:12.620Z,16.10
2022-10-07T06:38:45.792Z,15.48
2022-10-07T06:41:13.996Z,16.59
2022-10-07T06:43:40.330Z,17.52
2022-10-07T06:46:12.929Z,17.96
2022-10-07T06:48:41.916Z,17.20
2022-10-07T06:51:14.037Z,16.00
2022-10-07T06:53:41.422Z,15.07
2022-10-07T06:56:09.826Z,14.80
2022-10-07T06:58:36.693Z,15.93
2022-10-07T07:01:03.862Z,16.98
2022-10-07T07:03:30.489Z,17.38
2022-10-07T07:05:57.797Z,18.00
2022-10-07T07:08:28.548Z,18.54
2022-10-07T07:10:55.789Z,18.69
2022-10-07T07:13:22.329Z,17.45
2022-10-07T07:16:49.699Z,15.81
2022-10-07T07:19:17.522Z,15.45
2022-10-07T07:21:48.958Z,16.46
2022-10-07T07:24:19.589Z,17.54
2022-10-07T07:26:47.391Z,18.23
2022-10-07T07:29:16.632Z,18.57
2022-10-07T07:31:46.083Z,18.73
2022-10-07T07:34:18.673Z,17.88
2022-10-07T07:36:53.026Z,16.86
2022-10-07T07:39:21.456Z,17.54
2022-10-07T07:41:50.943Z,18.25
2022-10-07T07:44:19.275Z,19.18
2022-10-07T07:46:52.437Z,18.64
2022-10-07T07:49:23.119Z,17.78
2022-10-07T07:51:51.433Z,17.10
2022-10-07T07:54:19.355Z,17.70
2022-10-07T07:56:47.104Z,18.56
2022-10-07T07:59:14.958Z,18.14
2022-10-07T08:01:45.566Z,17.35
2022-10-07T08:04:15.326Z,17.44
2022-10-07T08:06:43.977Z,18.61
2022-10-07T08:09:13.098Z,19.03
2022-10-07T08:11:44.937Z,18.22
2022-10-07T08:14:15.738Z,17.48
2022-10-07T08:16:44.323Z,17.57
2022-10-07T08:19:12.468Z,18.60
2022-10-07T08:21:42.801Z,18.96
2022-10-07T08:24:12.792Z,17.99
2022-10-07T08:26:41.088Z,17.27
2022-10-07T08:29:09.133Z,17.49
2022-10-07T08:31:39.424Z,18.66
2022-10-07T08:34:07.125Z,18.84
2022-10-07T08:36:35.179Z,18.08
2022-10-07T08:39:06.342Z,17.43
2022-10-07T08:42:15.614Z,17.09
2022-10-07T08:44:48.495Z,17.95
2022-10-07T08:47:44.372Z,18.71
2022-10-07T08:50:51.800Z,18.02
2022-10-07T08:53:31.788Z,17.25
2022-10-07T08:56:15.617Z,16.96
2022-10-07T08:59:22.971Z,17.33
2022-10-07T09:02:31.301Z,18.67
2022-10-07T09:05:18.106Z,18.19
2022-10-07T09:07:54.025Z,17.62
2022-10-07T09:10:53.753Z,17.24
2022-10-07T09:13:31.087Z,17.39
2022-10-07T09:16:10.515Z,18.71
2022-10-07T09:18:48.112Z,18.95
2022-10-07T09:21:44.616Z,18.05
2022-10-07T09:24:29.127Z,17.48
2022-10-07T09:27:00.967Z,17.04
2022-10-07T09:29:30.974Z,17.59
2022-10-07T09:31:59.162Z,18.60
2022-10-07T09:34:30.726Z,18.47
2022-10-07T09:37:27.883Z,17.74
2022-10-07T09:40:21.040Z,17.13
2022-10-07T09:42:50.074Z,16.87
2022-10-07T09:45:38.256Z,17.20
2022-10-07T09:48:25.789Z,18.61
2022-10-07T09:51:18.060Z,18.39
2022-10-07T09:54:07.172Z,17.61
2022-10-07T09:56:40.841Z,17.17
2022-10-07T09:59:24.856Z,16.91
2022-10-07T10:02:11.578Z,16.67
2022-10-07T10:04:57.536Z,16.50
2022-10-07T10:07:36.271Z,16.98
2022-10-07T10:10:18.669Z,18.39
2022-10-07T10:12:51.077Z,18.47
2022-10-07T10:15:29.568Z,17.78
2022-10-07T10:17:58.024Z,17.31
2022-10-07T10:20:40.254Z,17.10
2022-10-07T10:23:29.636Z,16.88
2022-10-07T10:26:33.399Z,16.74
2022-10-07T10:29:35.717Z,16.70
2022-10-07T10:32:32.309Z,17.84
2022-10-07T10:35:19.540Z,18.73
2022-10-07T10:38:38.422Z,18.27
2022-10-07T10:41:24.663Z,17.72
2022-10-07T10:44:33.462Z,17.37
2022-10-07T10:47:28.493Z,17.15
2022-10-07T10:50:16.012Z,16.97
2022-10-07T10:53:42.141Z,16.86
2022-10-07T10:56:43.110Z,16.77
2022-10-07T10:59:57.131Z,16.74
2022-10-07T11:03:13.258Z,16.75
2022-10-07T11:05:42.609Z,16.75
2022-10-07T11:08:27.364Z,16.75
2022-10-07T11:11:06.809Z,16.79
2022-10-07T11:13:54.508Z,16.82
2022-10-07T11:16:43.413Z,16.85
2022-10-07T11:19:24.212Z,16.86
2022-10-07T11:22:00.048Z,16.84
2022-10-07T11:24:45.533Z,16.84
2022-10-07T11:27:35.326Z,16.84
2022-10-07T11:30:02.989Z,16.84
2022-10-07T11:33:12.017Z,16.82
2022-10-07T11:35:52.432Z,16.79
2022-10-07T11:38:35.741Z,16.78
2022-10-07T11:41:20.172Z,16.77
2022-10-07T11:43:55.959Z,16.71
2022-10-07T11:46:35.243Z,16.67
2022-10-07T11:49:24.236Z,16.65
2022-10-07T11:52:10.918Z,16.65
2022-10-07T11:55:06.543Z,16.66
2022-10-07T11:57:43.869Z,16.67
2022-10-07T12:00:30.539Z,16.68
2022-10-07T12:03:17.537Z,16.71
2022-10-07T12:05:51.465Z,16.71
2022-10-07T12:08:30.031Z,16.74
2022-10-07T12:11:13.390Z,16.80
2022-10-07T12:13:50.822Z,16.82
2022-10-07T12:16:31.708Z,16.90
2022-10-07T12:19:09.962Z,16.91
2022-10-07T12:21:59.628Z,16.96
2022-10-07T12:24:35.124Z,17.06
2022-10-07T12:27:21.282Z,17.20
2022-10-07T12:30:02.639Z,17.34
2022-10-07T12:32:45.544Z,17.35
2022-10-07T12:35:29.938Z,17.37
2022-10-07T12:38:17.312Z,17.44
2022-10-07T12:41:11.663Z,17.40
2022-10-07T12:44:20.487Z,17.32
2022-10-07T12:47:01.203Z,17.29
2022-10-07T12:49:41.882Z,17.27
2022-10-07T12:52:45.490Z,17.31
2022-10-07T12:55:29.487Z,17.44
2022-10-07T12:58:18.229Z,17.43
2022-10-07T13:01:40.331Z,17.41
2022-10-07T13:05:10.404Z,17.44
2022-10-07T13:08:13.213Z,17.36
2022-10-07T13:11:15.345Z,17.35
2022-10-07T13:14:10.835Z,17.32
2022-10-07T13:16:50.638Z,17.29
2022-10-07T13:20:07.389Z,17.29
2022-10-07T13:22:36.222Z,17.18
2022-10-07T13:25:07.672Z,17.11
2022-10-07T13:27:38.921Z,17.05
2022-10-07T13:30:28.326Z,16.98
2022-10-07T13:32:56.372Z,16.96
2022-10-07T13:35:38.813Z,16.94
2022-10-07T13:38:30.786Z,16.88
2022-10-07T13:41:08.102Z,16.78
2022-10-07T13:43:38.845Z,16.76
2022-10-07T13:46:10.191Z,16.69
2022-10-07T13:48:45.717Z,16.65
2022-10-07T13:51:55.442Z,16.62
2022-10-07T13:54:30.670Z,16.58
2022-10-07T13:57:03.709Z,16.58
2022-10-07T13:59:36.730Z,16.52
2022-10-07T14:02:07.803Z,16.46
2022-10-07T14:04:35.916Z,16.46
2022-10-07T14:07:16.395Z,16.45
2022-10-07T14:09:46.607Z,16.47
2022-10-07T14:12:31.616Z,16.38
2022-10-07T14:15:19.778Z,16.39
2022-10-07T14:17:55.027Z,16.36
2022-10-07T14:20:40.604Z,16.33
2022-10-07T14:23:26.562Z,16.32
2022-10-07T14:26:04.144Z,16.29
2022-10-07T14:28:35.596Z,16.26
2022-10-07T14:31:28.244Z,16.24
2022-10-07T14:34:36.675Z,16.21
2022-10-07T14:37:20.109Z,16.18
2022-10-07T14:39:51.169Z,16.14
2022-10-07T14:42:30.335Z,16.11
2022-10-07T14:44:58.866Z,16.08
2022-10-07T14:47:31.636Z,16.05
2022-10-07T14:50:01.640Z,16.06
2022-10-07T14:52:36.613Z,16.02
2022-10-07T14:55:23.626Z,16.01
2022-10-07T14:57:51.998Z,15.99
2022-10-07T15:00:24.973Z,16.01
2022-10-07T15:02:54.621Z,15.99
2022-10-07T15:05:27.014Z,15.97
2022-10-07T15:07:54.908Z,15.96
2022-10-07T15:10:26.364Z,15.94
2022-10-07T15:12:56.089Z,15.93
2022-10-07T15:15:24.165Z,15.93
2022-10-07T15:17:52.448Z,15.92
2022-10-07T15:20:21.476Z,15.90
2022-10-07T15:22:51.163Z,15.88
2022-10-07T15:25:19.422Z,15.85
2022-10-07T15:27:49.493Z,15.84
2022-10-07T15:30:18.822Z,15.81
2022-10-07T15:32:48.335Z,15.85
2022-10-07T15:35:16.717Z,15.80
2022-10-07T15:37:46.041Z,15.77
2022-10-07T15:40:14.927Z,15.74
2022-10-07T15:42:44.916Z,15.69
2022-10-07T15:45:13.409Z,15.63
2022-10-07T15:47:41.321Z,15.57
2022-10-07T15:50:10.702Z,15.51
2022-10-07T15:52:38.879Z,15.50
2022-10-07T15:55:08.056Z,15.50
2022-10-07T15:57:36.597Z,15.44
2022-10-07T16:00:05.608Z,15.42
2022-10-07T16:02:35.738Z,15.39
2022-10-07T16:05:04.378Z,15.34
2022-10-07T16:07:32.105Z,15.30
2022-10-07T16:10:00.435Z,15.28
2022-10-07T16:12:29.122Z,15.26
2022-10-07T16:14:56.808Z,15.23
2022-10-07T16:17:24.958Z,15.21
2022-10-07T16:19:52.697Z,15.17
2022-10-07T16:22:22.087Z,15.17
2022-10-07T16:24:50.153Z,15.15
2022-10-07T16:27:17.820Z,15.20
2022-10-07T16:30:04.638Z,15.21
2022-10-07T16:32:33.342Z,15.16
2022-10-07T16:35:01.013Z,15.14
2022-10-07T16:37:30.855Z,15.12
2022-10-07T16:39:59.089Z,15.10
2022-10-07T16:42:28.260Z,15.08
2022-10-07T16:44:56.142Z,15.04
2022-10-07T16:47:23.921Z,15.07
2022-10-07T16:49:53.070Z,15.03
2022-10-07T16:52:21.654Z,15.02
2022-10-07T16:54:51.893Z,15.00
2022-10-07T16:57:19.528Z,14.98
2022-10-07T16:59:47.563Z,14.95
2022-10-07T17:02:16.347Z,14.91
2022-10-07T17:04:46.458Z,14.92
2022-10-07T17:07:14.662Z,14.87
2022-10-07T17:09:43.866Z,14.84
2022-10-07T17:12:11.678Z,14.84
2022-10-07T17:14:39.457Z,14.85
2022-10-07T17:17:08.277Z,14.86
2022-10-07T17:19:36.740Z,14.83
2022-10-07T17:22:06.084Z,14.82
2022-10-07T17:24:34.425Z,14.77
2022-10-07T17:27:02.601Z,14.74
2022-10-07T17:29:33.379Z,14.73
2022-10-07T17:32:01.683Z,14.69
2022-10-07T17:34:29.442Z,14.65
2022-10-07T17:36:59.147Z,14.64
2022-10-07T17:39:27.353Z,14.62
2022-10-07T17:41:55.059Z,14.58
2022-10-07T17:44:22.970Z,14.55
2022-10-07T17:46:51.068Z,14.54
2022-10-07T17:49:21.792Z,14.49
2022-10-07T17:51:49.583Z,14.46
2022-10-07T17:54:17.737Z,14.44
2022-10-07T17:56:48.091Z,14.42
2022-10-07T17:59:17.084Z,14.41
2022-10-07T18:01:45.351Z,14.47
2022-10-07T18:04:23.674Z,14.54
2022-10-07T18:06:52.941Z,14.46
2022-10-07T18:09:22.904Z,14.41
2022-10-07T18:12:09.898Z,14.42
2022-10-07T18:14:58.669Z,14.37
2022-10-07T18:17:27.317Z,14.34
2022-10-07T18:19:55.886Z,14.33
2022-10-07T18:22:24.449Z,14.35
2022-10-07T18:24:52.462Z,14.34
2022-10-07T18:27:26.975Z,14.30
2022-10-07T18:29:56.098Z,14.25
2022-10-07T18:32:25.105Z,14.22
2022-10-07T18:34:52.962Z,14.27
2022-10-07T18:37:20.735Z,14.26
2022-10-07T18:39:48.453Z,14.25
2022-10-07T18:42:17.517Z,14.18
2022-10-07T18:44:45.140Z,14.15
2022-10-07T18:47:13.011Z,14.09
2022-10-07T18:49:42.245Z,14.02
2022-10-07T18:52:10.497Z,13.96
2022-10-07T18:54:38.678Z,13.93
2022-10-07T18:57:07.055Z,13.88
2022-10-07T18:59:35.425Z,13.82
2022-10-07T19:02:03.846Z,13.78
2022-10-07T19:04:32.819Z,13.74
2022-10-07T19:07:01.678Z,13.72
2022-10-07T19:09:29.538Z,13.70
2022-10-07T19:11:58.509Z,13.68
2022-10-07T19:14:28.299Z,13.69
2022-10-07T19:16:56.618Z,13.67
2022-10-07T19:19:26.761Z,13.64
2022-10-07T19:21:55.863Z,13.67
2022-10-07T19:24:43.683Z,13.69
2022-10-07T19:27:11.519Z,13.66
2022-10-07T19:29:39.413Z,13.66
2022-10-07T19:32:08.753Z,13.68
2022-10-07T19:34:37.705Z,13.68
2022-10-07T19:37:06.309Z,13.65
2022-10-07T19:39:34.496Z,13.63
2022-10-07T19:42:02.284Z,13.62
2022-10-07T19:44:30.392Z,13.58
2022-10-07T19:46:58.380Z,13.56
2022-10-07T19:49:26.405Z,13.53
2022-10-07T19:51:54.134Z,13.49
2022-10-07T19:54:21.898Z,13.43
2022-10-07T19:56:49.561Z,13.40
2022-10-07T19:59:17.361Z,13.34
2022-10-07T20:01:47.671Z,13.28
2022-10-07T20:04:20.834Z,13.21
2022-10-07T20:06:49.328Z,13.15
2022-10-07T20:09:19.643Z,13.08
2022-10-07T20:11:47.802Z,13.09
2022-10-07T20:14:16.241Z,13.06
2022-10-07T20:16:44.367Z,13.05
2022-10-07T20:19:18.762Z,13.02
2022-10-07T20:21:48.158Z,12.96
2022-10-07T20:24:16.757Z,12.92
2022-10-07T20:26:45.218Z,12.91
2022-10-07T20:29:16.022Z,12.91
2022-10-07T20:31:44.809Z,12.91
2022-10-07T20:34:18.936Z,12.93
2022-10-07T20:36:47.094Z,12.87
2022-10-07T20:39:37.299Z,12.81
2022-10-07T20:42:21.484Z,13.65
2022-10-07T20:44:50.983Z,15.46
2022-10-07T20:47:20.932Z,15.63
2022-10-07T20:49:51.300Z,14.89
2022-10-07T20:52:23.698Z,14.33
2022-10-07T20:54:52.946Z,13.85
2022-10-07T20:57:28.537Z,13.51
2022-10-07T20:59:56.585Z,13.24
2022-10-07T21:02:28.596Z,13.03
2022-10-07T21:04:56.461Z,12.88
2022-10-07T21:07:25.653Z,12.76
2022-10-07T21:09:54.903Z,12.68
2022-10-07T21:12:23.429Z,12.61
2022-10-07T21:14:51.280Z,12.56
2022-10-07T21:17:19.843Z,12.51
2022-10-07T21:19:49.663Z,12.47
2022-10-07T21:22:17.420Z,12.42
2022-10-07T21:24:45.664Z,12.37
2022-10-07T21:27:13.574Z,12.32
2022-10-07T21:29:43.235Z,12.28
2022-10-07T21:32:12.453Z,12.24
2022-10-07T21:34:41.466Z,12.21
2022-10-07T21:37:09.212Z,12.19
2022-10-07T21:39:38.169Z,12.16
2022-10-07T21:42:06.133Z,12.14
2022-10-07T21:44:35.576Z,12.09
2022-10-07T21:47:05.269Z,12.04
2022-10-07T21:49:33.347Z,12.00
2022-10-07T21:52:01.457Z,11.98
2022-10-07T21:54:30.358Z,11.95
2022-10-07T21:56:58.198Z,11.92
2022-10-07T21:59:26.402Z,11.87
2022-10-07T22:01:54.093Z,11.84
2022-10-07T22:04:22.078Z,11.81
2022-10-07T22:07:08.525Z,11.78
2022-10-07T22:09:36.512Z,12.47
2022-10-07T22:12:06.122Z,14.30
2022-10-07T22:14:33.864Z,15.50
2022-10-07T22:17:01.744Z,15.06
2022-10-07T22:19:29.842Z,14.30
2022-10-07T22:21:57.661Z,13.72
2022-10-07T22:24:25.373Z,13.31
2022-10-07T22:26:53.240Z,13.00
2022-10-07T22:29:21.913Z,12.75
2022-10-07T22:31:49.863Z,12.52
2022-10-07T22:34:37.301Z,12.29
2022-10-07T22:37:09.057Z,12.00
2022-10-07T22:39:36.903Z,11.72
2022-10-07T22:42:04.675Z,11.47
2022-10-07T22:44:32.832Z,11.63
2022-10-07T22:47:02.346Z,13.24
2022-10-07T22:49:30.591Z,14.82
2022-10-07T22:52:00.182Z,15.48
2022-10-07T22:54:29.784Z,14.57
2022-10-07T22:56:58.887Z,13.59
2022-10-07T22:59:26.625Z,12.87
2022-10-07T23:01:54.390Z,12.33
2022-10-07T23:04:22.046Z,11.90
2022-10-07T23:06:49.861Z,11.54
2022-10-07T23:09:17.599Z,11.23
2022-10-07T23:11:45.975Z,10.90
2022-10-07T23:14:14.104Z,10.59
2022-10-07T23:16:42.410Z,10.71
2022-10-07T23:19:10.483Z,12.32
2022-10-07T23:21:38.265Z,13.89
2022-10-07T23:24:09.940Z,14.46
2022-10-07T23:26:38.405Z,13.54
2022-10-07T23:29:07.771Z,12.58
2022-10-07T23:31:37.247Z,11.84
2022-10-07T23:34:06.895Z,11.28
2022-10-07T23:36:37.954Z,10.82
2022-10-07T23:39:06.021Z,10.45
2022-10-07T23:41:35.082Z,10.16
2022-10-07T23:44:03.713Z,10.27
2022-10-07T23:46:36.413Z,11.89
2022-10-07T23:49:05.284Z,13.53
2022-10-07T23:51:33.676Z,14.17
2022-10-07T23:54:04.600Z,13.30
2022-10-07T23:56:33.537Z,12.30
2022-10-07T23:59:02.498Z,11.58
